Time;durP1;ratioP1;P1;durP2;ratioP2;P2;SDS_P1;SDS_P2;PMS_P1;PMS_P2;Temp;Humidity;BMP_temperature;BMP_pressure;BME280_temperature;BME280_humidity;BME280_pressure;Samples;Min_cycle;Max_cycle;Signal;HPM_P1;HPM_P2
2023/10/18 00:00:17;;;;;;;20.90;11.50;;;;;;;-145.69;66.09;52218.63;5094978;28;20255;-81
2023/10/18 00:02:44;;;;;;;26.17;12.30;;;;;;;-145.69;66.26;52246.34;5094943;28;20198;-79
2023/10/18 00:05:11;;;;;;;23.90;11.97;;;;;;;-145.69;66.63;52266.16;5094807;28;20280;-79
2023/10/18 00:07:39;;;;;;;25.27;13.13;;;;;;;-145.69;65.98;52234.47;5094513;28;20245;-79
2023/10/18 00:10:08;;;;;;;25.43;12.53;;;;;;;-145.69;66.43;52218.63;5094854;28;20209;-79
2023/10/18 00:12:34;;;;;;;25.40;13.47;;;;;;;-145.69;65.98;52254.28;5094545;28;20198;-79
2023/10/18 00:15:01;;;;;;;26.47;13.43;;;;;;;-145.69;66.69;52238.44;5093828;28;20599;-78
2023/10/18 00:17:28;;;;;;;31.60;15.50;;;;;;;-145.69;66.91;52258.22;5094266;28;20226;-78
2023/10/18 00:19:55;;;;;;;28.80;14.60;;;;;;;-145.69;66.77;52230.50;5094248;28;20194;-78
2023/10/18 00:22:21;;;;;;;35.00;14.83;;;;;;;-145.69;66.82;52248.34;5094580;28;20588;-78
2023/10/18 00:24:49;;;;;;;32.43;16.53;;;;;;;-145.69;67.66;52182.97;5094189;28;20272;-78
2023/10/18 00:27:16;;;;;;;30.87;15.13;;;;;;;-145.69;67.32;52246.34;5094156;28;20204;-79
2023/10/18 00:29:43;;;;;;;29.93;14.57;;;;;;;-145.69;67.08;52242.38;5094486;28;20248;-79
2023/10/18 00:32:11;;;;;;;34.73;16.40;;;;;;;-145.69;67.25;52218.63;5094313;28;20206;-79
2023/10/18 00:34:38;;;;;;;31.10;15.93;;;;;;;-145.69;67.32;52206.75;5094565;28;20234;-79
2023/10/18 00:37:06;;;;;;;32.93;15.53;;;;;;;-145.69;67.15;52206.75;5094144;28;20281;-78
2023/10/18 00:39:33;;;;;;;28.63;14.93;;;;;;;-145.69;67.08;52238.44;5094321;28;20198;-79
2023/10/18 00:42:24;;;;;;;28.00;14.40;;;;;;;-145.69;67.20;52188.91;5094237;28;20226;-78
2023/10/18 00:44:50;;;;;;;31.53;14.43;;;;;;;-145.69;67.00;52200.81;5094167;28;20538;-78
2023/10/18 00:47:17;;;;;;;27.83;14.77;;;;;;;-145.69;67.67;52212.69;5093512;28;20198;-78
2023/10/18 00:49:44;;;;;;;33.33;13.57;;;;;;;-145.69;66.98;52208.72;5094028;28;20279;-78
2023/10/18 00:52:15;;;;;;;30.23;14.07;;;;;;;-145.69;66.62;52202.78;5093733;28;20202;-78
2023/10/18 00:54:44;;;;;;;25.60;13.77;;;;;;;-145.69;67.23;52234.47;5094180;28;20201;-78
2023/10/18 00:57:12;;;;;;;31.83;15.63;;;;;;;-145.69;67.38;52220.59;5093353;28;20198;-78
2023/10/18 00:59:40;;;;;;;26.53;14.40;;;;;;;-145.69;67.47;52220.59;5094586;28;20653;-78
2023/10/18 01:02:11;;;;;;;32.53;14.60;;;;;;;-145.69;67.65;52202.78;5093538;28;20230;-78
2023/10/18 01:04:37;;;;;;;29.00;15.10;;;;;;;-145.69;67.60;52202.78;5087757;28;20206;-78
2023/10/18 01:07:11;;;;;;;28.90;14.23;;;;;;;-145.69;67.07;52190.91;5093166;28;20697;-78
2023/10/18 01:09:43;;;;;;;26.53;13.53;;;;;;;-145.69;66.66;52216.66;5092987;28;20194;-79
2023/10/18 01:12:10;;;;;;;22.60;12.67;;;;;;;-145.69;67.20;52218.63;5093407;28;20217;-79
2023/10/18 01:14:37;;;;;;;26.10;12.43;;;;;;;-145.69;67.70;52204.75;5093561;28;20237;-79
2023/10/18 01:17:06;;;;;;;24.33;12.60;;;;;;;-145.69;67.59;52218.63;5093096;28;20242;-79
2023/10/18 01:19:33;;;;;;;21.30;11.40;;;;;;;-145.69;67.49;52234.47;5093662;28;20562;-78
2023/10/18 01:21:59;;;;;;;21.07;11.23;;;;;;;-145.69;67.39;52228.53;5093300;28;20229;-79
2023/10/18 01:24:34;;;;;;;20.17;10.70;;;;;;;-145.69;67.23;52198.81;5093418;28;20596;-79
2023/10/18 01:27:01;;;;;;;27.37;11.90;;;;;;;-145.69;68.47;52226.53;5093193;28;20602;-78
2023/10/18 01:29:28;;;;;;;23.20;11.53;;;;;;;-145.69;68.32;52218.63;5093425;28;20719;-79
2023/10/18 01:31:55;;;;;;;25.73;15.00;;;;;;;-145.69;68.99;52216.66;5092212;28;20429;-79
2023/10/18 01:34:22;;;;;;;25.13;12.77;;;;;;;-145.69;67.79;52220.59;5093330;28;20233;-79
2023/10/18 01:36:50;;;;;;;25.23;11.90;;;;;;;-145.69;67.67;52214.66;5092907;28;20259;-79
2023/10/18 01:39:20;;;;;;;19.53;11.07;;;;;;;-145.69;67.87;52202.78;5093179;28;20560;-79
2023/10/18 01:41:53;;;;;;;23.63;12.03;;;;;;;-145.69;67.91;52240.41;5093147;28;20321;-79
2023/10/18 01:44:27;;;;;;;19.03;11.03;;;;;;;-145.69;68.07;52206.75;5092871;28;20198;-79
2023/10/18 01:46:55;;;;;;;23.83;11.50;;;;;;;-145.69;68.69;52244.38;5092802;28;20201;-79
2023/10/18 01:49:24;;;;;;;21.80;10.80;;;;;;;-145.69;68.82;52202.78;5093056;28;20289;-78
2023/10/18 01:51:53;;;;;;;23.43;12.40;;;;;;;-145.69;68.69;52222.59;5092452;28;20206;-79
2023/10/18 01:54:20;;;;;;;22.37;11.20;;;;;;;-145.69;68.44;52186.94;5093155;28;20288;-79
2023/10/18 01:56:47;;;;;;;20.53;10.30;;;;;;;-145.69;68.83;52238.44;5092976;28;20296;-78
2023/10/18 01:59:17;;;;;;;17.17;9.37;;;;;;;-145.69;68.92;52224.56;5093129;28;20198;-79
2023/10/18 02:01:45;;;;;;;21.03;10.27;;;;;;;-145.69;69.09;52202.78;5092848;28;20651;-79
2023/10/18 02:04:23;;;;;;;21.20;9.70;;;;;;;-145.69;68.69;52242.38;5092883;28;20201;-79
2023/10/18 02:06:50;;;;;;;21.40;10.60;;;;;;;-145.69;69.01;52250.31;5092600;28;20201;-79
2023/10/18 02:09:17;;;;;;;21.23;11.00;;;;;;;-145.69;68.66;52214.66;5092980;28;20233;-79
2023/10/18 02:11:43;;;;;;;17.00;9.37;;;;;;;-145.69;68.48;52230.50;5092519;28;20657;-79
2023/10/18 02:14:10;;;;;;;15.53;8.87;;;;;;;-145.69;67.88;52210.72;5092785;28;20210;-80
2023/10/18 02:16:39;;;;;;;18.00;9.13;;;;;;;-145.69;68.08;52214.66;5092745;28;20560;-79
2023/10/18 02:19:08;;;;;;;15.33;8.07;;;;;;;-145.69;68.05;52224.56;5092686;28;20194;-79
2023/10/18 02:21:35;;;;;;;16.37;8.00;;;;;;;-145.69;68.18;52234.47;5091177;28;20214;-79
2023/10/18 02:24:01;;;;;;;14.67;8.03;;;;;;;-145.69;67.88;52236.44;5092523;28;20194;-78
2023/10/18 02:26:34;;;;;;;14.03;8.20;;;;;;;-145.69;68.10;52238.44;5092807;28;20198;-78
2023/10/18 02:29:05;;;;;;;17.47;8.77;;;;;;;-145.69;67.92;52224.56;5092373;28;20193;-78
2023/10/18 02:31:33;;;;;;;14.67;7.47;;;;;;;-145.69;67.64;52250.31;5092745;28;20208;-81
2023/10/18 02:34:04;;;;;;;12.20;6.87;;;;;;;-145.69;68.00;52228.53;5092602;28;20530;-79
2023/10/18 02:36:38;;;;;;;16.60;6.73;;;;;;;-145.69;67.87;52216.66;5092535;28;20198;-80
2023/10/18 02:39:05;;;;;;;14.30;6.60;;;;;;;-145.69;66.92;52232.50;5095283;28;20679;-79
2023/10/18 02:41:34;;;;;;;14.80;7.23;;;;;;;-145.69;67.45;52266.16;5096790;28;20767;-79
2023/10/18 02:44:01;;;;;;;13.00;6.50;;;;;;;-145.69;66.91;52222.59;5096613;28;20225;-80
2023/10/18 02:46:27;;;;;;;10.97;5.80;;;;;;;-145.69;66.80;52252.28;5096557;28;20216;-79
2023/10/18 02:48:56;;;;;;;8.70;4.90;;;;;;;-145.69;66.60;52230.50;5096438;28;20225;-79
2023/10/18 02:51:26;;;;;;;8.40;4.83;;;;;;;-145.69;66.97;52248.34;5096581;28;20213;-80
2023/10/18 02:53:57;;;;;;;16.95;9.93;;;;;;;-145.69;68.70;52236.44;5095311;28;20837;-80
2023/10/18 02:56:27;;;;;;;13.60;7.77;;;;;;;-145.69;67.47;52228.53;5096530;28;20198;-78
2023/10/18 02:58:57;;;;;;;15.13;8.57;;;;;;;-145.69;67.70;52188.91;5096253;28;20202;-79
2023/10/18 03:01:25;;;;;;;13.53;6.40;;;;;;;-145.69;67.70;52226.53;5095196;28;20225;-79
2023/10/18 03:03:55;;;;;;;12.97;6.40;;;;;;;-145.69;67.05;52228.53;5077999;28;20716;-80
2023/10/18 03:06:24;;;;;;;11.33;6.23;;;;;;;-145.69;67.06;52214.66;5076353;28;20195;-81
2023/10/18 03:08:56;;;;;;;12.33;6.67;;;;;;;-145.69;67.28;52234.47;5095504;28;20217;-80
2023/10/18 03:11:23;;;;;;;17.43;8.20;;;;;;;-145.69;67.00;52248.34;5096224;28;20205;-79
2023/10/18 03:13:51;;;;;;;15.60;8.43;;;;;;;-145.69;67.23;52210.72;5095929;28;20213;-81
2023/10/18 03:16:27;;;;;;;13.47;7.83;;;;;;;-145.69;67.44;52238.44;5095310;28;20644;-81
2023/10/18 03:18:55;;;;;;;17.70;9.20;;;;;;;-145.69;67.31;52232.50;5095539;28;20229;-79
2023/10/18 03:21:22;;;;;;;16.00;8.57;;;;;;;-145.69;67.15;52218.63;5095810;28;20226;-79
2023/10/18 03:23:50;;;;;;;18.97;8.97;;;;;;;-145.69;67.28;52224.56;5095906;28;20251;-81
2023/10/18 03:26:22;;;;;;;18.33;9.23;;;;;;;-145.69;67.45;52226.53;5095658;28;20212;-79
2023/10/18 03:28:50;;;;;;;19.20;9.50;;;;;;;-145.69;66.98;52266.16;5095638;28;20205;-81
2023/10/18 03:31:27;;;;;;;15.77;9.60;;;;;;;-145.69;67.00;52260.22;5095285;28;20715;-81
2023/10/18 03:33:59;;;;;;;19.27;9.77;;;;;;;-145.69;67.20;52236.44;5096029;28;20198;-81
2023/10/18 03:36:26;;;;;;;21.70;10.63;;;;;;;-145.69;67.61;52250.31;5095116;28;20216;-80
2023/10/18 03:38:54;;;;;;;18.70;9.60;;;;;;;-145.69;66.93;52256.25;5095576;28;20202;-81
2023/10/18 03:41:25;;;;;;;20.97;11.07;;;;;;;-145.69;67.35;52210.72;5095185;28;20206;-81
2023/10/18 03:43:58;;;;;;;17.97;9.83;;;;;;;-145.69;67.50;52242.38;5095128;28;20202;-80
2023/10/18 03:46:29;;;;;;;17.33;9.77;;;;;;;-145.69;66.95;52256.25;5095589;28;20281;-80
2023/10/18 03:49:01;;;;;;;18.50;9.57;;;;;;;-145.69;67.13;52258.22;5095162;28;20653;-81
2023/10/18 03:51:30;;;;;;;16.17;8.53;;;;;;;-145.69;67.42;52250.31;5095156;28;20726;-80
2023/10/18 03:54:00;;;;;;;21.80;10.37;;;;;;;-145.69;67.53;52242.38;5094787;28;20209;-80
2023/10/18 03:56:32;;;;;;;22.93;10.33;;;;;;;-145.69;67.75;52234.47;5095018;28;20202;-80
2023/10/18 03:59:03;;;;;;;20.20;10.10;;;;;;;-145.69;67.55;52206.75;5094988;28;20201;-80
2023/10/18 04:01:39;;;;;;;17.10;9.87;;;;;;;-145.69;66.79;52246.34;5094948;28;20251;-80
2023/10/18 04:04:07;;;;;;;19.80;9.17;;;;;;;-145.69;66.96;52262.19;5094747;28;20205;-80
2023/10/18 04:06:35;;;;;;;16.90;7.57;;;;;;;-145.69;67.79;52220.59;5095040;28;20289;-82
2023/10/18 04:09:13;;;;;;;16.10;7.97;;;;;;;-145.69;67.63;52236.44;5094380;28;20248;-81
2023/10/18 04:11:41;;;;;;;16.83;7.43;;;;;;;-145.69;68.79;52232.50;5095184;28;20202;-80
2023/10/18 04:14:09;;;;;;;13.30;7.30;;;;;;;-145.69;68.04;52202.78;5094640;28;20194;-81
2023/10/18 04:16:36;;;;;;;12.67;6.50;;;;;;;-145.69;68.22;52236.44;5094298;28;20653;-81
2023/10/18 04:19:07;;;;;;;14.17;6.60;;;;;;;-145.69;68.01;52224.56;5094862;28;20602;-81
2023/10/18 04:21:34;;;;;;;11.70;6.50;;;;;;;-145.69;67.74;52234.47;5094934;28;20248;-80
2023/10/18 04:24:03;;;;;;;9.53;5.70;;;;;;;-145.69;67.45;52234.47;5095012;28;20670;-81
2023/10/18 04:26:30;;;;;;;12.00;6.57;;;;;;;-145.69;67.72;52240.41;5094353;28;20289;-81
2023/10/18 04:29:01;;;;;;;13.03;5.67;;;;;;;-145.69;67.60;52216.66;5094204;28;20215;-80
2023/10/18 04:31:29;;;;;;;11.53;5.70;;;;;;;-145.69;67.91;52210.72;5094390;28;20649;-80
2023/10/18 04:33:57;;;;;;;12.77;6.33;;;;;;;-145.69;67.58;52216.66;5094028;28;20201;-80
2023/10/18 04:36:24;;;;;;;13.27;6.47;;;;;;;-145.69;67.92;52238.44;5093926;28;20672;-80
2023/10/18 04:38:52;;;;;;;12.40;5.63;;;;;;;-145.69;68.15;52202.78;5094241;28;20668;-80
2023/10/18 04:41:28;;;;;;;11.53;6.07;;;;;;;-145.69;67.94;52254.28;5094268;28;20198;-80
2023/10/18 04:44:00;;;;;;;11.17;5.30;;;;;;;-145.69;68.25;52234.47;5093717;28;20202;-81
2023/10/18 04:46:30;;;;;;;15.57;5.47;;;;;;;-145.69;68.34;52256.25;5094226;28;20205;-81
2023/10/18 04:51:45;;;;;;;11.27;6.07;;;;;;;-145.69;68.03;52218.63;5094211;28;20197;-81
2023/10/18 04:54:15;;;;;;;15.43;7.63;;;;;;;-145.69;67.87;52188.91;5093619;28;20198;-81
2023/10/18 04:56:44;;;;;;;14.80;8.17;;;;;;;-145.69;68.22;52244.38;5094196;28;20198;-81
2023/10/18 04:59:11;;;;;;;12.67;7.00;;;;;;;-145.69;67.85;52214.66;5094076;28;20201;-81
2023/10/18 05:01:56;;;;;;;13.73;7.57;;;;;;;-145.69;68.05;52226.53;5089694;28;20221;-81
2023/10/18 05:04:24;;;;;;;12.33;5.40;;;;;;;-145.69;68.37;52222.59;5093492;28;20201;-81
2023/10/18 05:06:54;;;;;;;8.03;4.93;;;;;;;-145.69;67.75;52206.75;5093781;28;20247;-81
2023/10/18 05:09:29;;;;;;;9.90;5.90;;;;;;;-145.69;67.81;52206.75;5093573;28;20194;-81
2023/10/18 05:11:57;;;;;;;14.13;5.67;;;;;;;-145.69;67.91;52224.56;5093577;28;20560;-81
2023/10/18 05:14:35;;;;;;;9.33;5.23;;;;;;;-145.69;68.15;52222.59;5093215;28;20198;-81
2023/10/18 05:17:10;;;;;;;9.20;5.47;;;;;;;-145.69;67.93;52240.41;5093205;28;20638;-80
2023/10/18 05:19:37;;;;;;;8.60;4.83;;;;;;;-145.69;68.10;52238.44;5093315;28;20193;-81
2023/10/18 05:22:05;;;;;;;13.07;5.03;;;;;;;-145.69;68.42;52218.63;5093726;28;20255;-81
2023/10/18 05:24:36;;;;;;;12.17;5.40;;;;;;;-145.69;68.64;52242.38;5092908;28;20684;-81
2023/10/18 05:27:05;;;;;;;12.10;6.10;;;;;;;-145.69;68.20;52226.53;5093502;28;20548;-81
2023/10/18 05:29:39;;;;;;;9.57;5.63;;;;;;;-145.69;68.79;52244.38;5093092;28;20263;-81
2023/10/18 05:32:07;;;;;;;13.60;5.53;;;;;;;-145.69;68.77;52224.56;5093262;28;20206;-81
2023/10/18 05:37:33;;;;;;;13.03;6.37;;;;;;;-145.69;68.00;52214.66;4987792;28;20559;-80
2023/10/18 05:42:46;;;;;;;9.43;5.20;;;;;;;-145.69;67.87;52214.66;4987204;28;20213;-80
2023/10/18 05:45:12;;;;;;;16.33;6.57;;;;;;;-145.69;68.10;52186.94;4987510;28;20602;-80
2023/10/18 05:47:42;;;;;;;11.53;6.47;;;;;;;-145.69;67.84;52252.28;4987355;28;20216;-80
2023/10/18 05:50:12;;;;;;;11.10;6.50;;;;;;;-145.69;67.79;52242.38;4987514;28;20258;-80
2023/10/18 05:52:44;;;;;;;12.17;6.47;;;;;;;-145.69;67.80;52210.72;4987030;28;20255;-79
2023/10/18 05:55:10;;;;;;;11.63;7.30;;;;;;;-145.69;67.47;52228.53;4987422;28;20210;-80
2023/10/18 05:57:37;;;;;;;14.00;7.00;;;;;;;-145.69;67.75;52226.53;4987320;28;20684;-80
2023/10/18 06:00:17;;;;;;;14.73;8.00;;;;;;;-145.69;67.63;52198.81;4987240;28;20236;-79
2023/10/18 06:02:45;;;;;;;10.30;6.33;;;;;;;-145.69;67.42;52202.78;4986936;28;20202;-80
2023/10/18 06:05:13;;;;;;;13.07;6.20;;;;;;;-145.69;68.05;52244.38;4987032;28;20197;-80
2023/10/18 06:07:41;;;;;;;12.53;6.50;;;;;;;-145.69;67.88;52206.75;4987011;28;20209;-80
2023/10/18 06:10:13;;;;;;;13.37;5.87;;;;;;;-145.69;67.96;52230.50;4987349;28;20237;-80
2023/10/18 06:12:46;;;;;;;11.63;5.17;;;;;;;-145.69;67.95;52230.50;4986834;28;20213;-81
2023/10/18 06:15:13;;;;;;;7.30;3.70;;;;;;;-145.69;67.90;52232.50;4987403;28;20204;-80
2023/10/18 06:17:53;;;;;;;7.07;3.60;;;;;;;-145.69;66.96;52218.63;4986660;28;20201;-80
2023/10/18 06:20:27;;;;;;;7.50;3.90;;;;;;;-145.69;65.95;52202.78;4987324;28;20201;-80
2023/10/18 06:23:08;;;;;;;7.10;3.30;;;;;;;-145.69;66.60;52177.03;4987146;28;20328;-80
2023/10/18 06:25:44;;;;;;;6.17;3.00;;;;;;;-145.69;65.71;52194.88;4987156;28;20212;-80
2023/10/18 06:28:11;;;;;;;4.63;2.70;;;;;;;-145.69;64.84;52194.88;4986500;28;20804;-80
2023/10/18 06:30:39;;;;;;;5.93;2.57;;;;;;;-145.69;63.33;52186.94;4987091;28;20587;-81
2023/10/18 06:33:12;;;;;;;11.03;2.13;;;;;;;-145.69;65.21;52186.94;5000064;28;20209;-80
2023/10/18 06:35:50;;;;;;;4.13;2.03;;;;;;;-145.69;61.40;52202.78;5089306;28;20275;-79
2023/10/18 06:38:18;;;;;;;6.50;2.10;;;;;;;-145.69;58.89;52179.03;5089389;28;20216;-80
2023/10/18 06:40:50;;;;;;;2.73;2.00;;;;;;;-145.69;57.78;52179.03;5089972;28;20197;-81
2023/10/18 06:43:17;;;;;;;2.70;1.80;;;;;;;-145.69;55.92;52143.38;5059059;28;20292;-81
2023/10/18 06:45:46;;;;;;;4.43;1.70;;;;;;;-145.69;54.95;52169.13;4987074;28;20615;-80
2023/10/18 06:48:14;;;;;;;4.30;1.93;;;;;;;-145.69;54.13;52198.81;4976637;28;20660;-80
2023/10/18 06:50:41;;;;;;;2.50;1.70;;;;;;;-145.69;53.35;52159.22;4973776;28;20611;-81
2023/10/18 06:53:09;;;;;;;3.30;1.60;;;;;;;-145.69;52.78;52149.31;4960425;28;20200;-81
2023/10/18 06:55:42;;;;;;;3.13;1.40;;;;;;;-145.69;53.00;52163.19;4973638;28;20202;-80
2023/10/18 06:58:13;;;;;;;3.17;1.50;;;;;;;-145.69;50.80;52169.13;4973693;28;20271;-80
2023/10/18 07:00:43;;;;;;;4.27;2.03;;;;;;;-145.69;51.78;52163.19;4973704;28;20217;-80
2023/10/18 07:03:16;;;;;;;4.40;2.37;;;;;;;-145.69;52.34;52153.28;4973030;28;20202;-80
2023/10/18 07:05:43;;;;;;;6.97;3.40;;;;;;;-145.69;51.73;52159.22;4973649;28;20214;-80
2023/10/18 07:08:19;;;;;;;8.33;3.97;;;;;;;-145.69;51.94;52196.84;4973434;28;20214;-80
2023/10/18 07:10:54;;;;;;;7.40;4.40;;;;;;;-145.69;52.64;52147.34;4973352;28;20453;-80
2023/10/18 07:13:24;;;;;;;11.47;4.63;;;;;;;-145.69;52.34;52163.19;4973181;28;20232;-80
2023/10/18 07:15:51;;;;;;;6.97;4.07;;;;;;;-145.69;53.25;52175.06;4973119;28;20226;-79
2023/10/18 07:18:20;;;;;;;10.47;4.60;;;;;;;-145.69;52.90;52181.00;4971949;28;20683;-79
2023/10/18 07:20:49;;;;;;;7.90;4.80;;;;;;;-145.69;52.76;52167.13;4973351;28;20209;-80
2023/10/18 07:23:21;;;;;;;8.33;4.80;;;;;;;-145.69;52.69;52135.47;4973053;28;20579;-80
2023/10/18 07:25:51;;;;;;;7.20;4.47;;;;;;;-145.69;53.51;52139.41;4983316;28;20218;-80
2023/10/18 07:28:21;;;;;;;11.50;4.50;;;;;;;-145.69;51.87;52167.13;4973369;28;20206;-80
2023/10/18 07:30:48;;;;;;;8.10;4.33;;;;;;;-145.69;52.54;52151.28;4973038;28;20229;-80
2023/10/18 07:33:15;;;;;;;8.83;4.40;;;;;;;-145.69;52.05;52163.19;4972490;28;20209;-80
2023/10/18 07:35:44;;;;;;;8.13;4.57;;;;;;;-145.69;51.66;52119.63;4972678;28;20260;-80
2023/10/18 07:38:10;;;;;;;8.20;4.73;;;;;;;-145.69;50.76;52163.19;4972846;28;20207;-80
2023/10/18 07:40:40;;;;;;;7.60;4.30;;;;;;;-145.69;51.08;52163.19;4972868;28;20220;-80
2023/10/18 07:43:12;;;;;;;8.60;5.00;;;;;;;-145.69;51.26;52147.34;4972648;28;20202;-80
2023/10/18 07:45:39;;;;;;;10.00;5.20;;;;;;;-145.69;50.84;52157.25;4972541;28;20207;-80
2023/10/18 07:48:06;;;;;;;9.73;5.40;;;;;;;-145.69;51.30;52145.34;4971547;28;20206;-79
2023/10/18 07:50:35;;;;;;;10.95;5.03;;;;;;;-145.69;50.64;52147.34;4973664;28;20206;-80
2023/10/18 07:53:01;;;;;;;9.83;5.57;;;;;;;-145.69;51.17;52123.56;4972970;28;20572;-80
2023/10/18 07:55:28;;;;;;;8.73;4.93;;;;;;;-145.69;50.88;52153.28;4972078;28;20202;-79
2023/10/18 07:57:56;;;;;;;9.32;5.43;;;;;;;-145.69;51.05;52151.28;4972533;28;20254;-80
2023/10/18 08:00:31;;;;;;;9.68;5.88;;;;;;;-145.69;51.10;52119.63;4971560;28;20315;-79
2023/10/18 08:02:59;;;;;;;8.80;4.80;;;;;;;-145.69;51.35;52139.41;4972018;28;20668;-79
2023/10/18 08:05:30;;;;;;;10.10;5.05;;;;;;;-145.69;50.73;52099.81;4972686;28;20202;-80
2023/10/18 08:08:08;;;;;;;5.75;4.00;;;;;;;-145.69;49.95;52115.66;4972558;28;20208;-79
2023/10/18 08:10:35;;;;;;;8.32;4.53;;;;;;;-145.69;49.51;52129.50;4972351;28;20206;-80
2023/10/18 08:13:07;;;;;;;9.52;4.55;;;;;;;-145.69;49.60;52101.78;4972137;28;20205;-80
2023/10/18 08:15:36;;;;;;;9.80;4.57;;;;;;;-145.69;49.38;52105.75;4972507;28;20207;-80
2023/10/18 08:18:14;;;;;;;7.85;3.78;;;;;;;-145.69;49.00;52127.53;4972498;28;20241;-80
2023/10/18 08:21:06;;;;;;;8.52;5.07;;;;;;;-145.69;49.25;52127.53;4972411;28;20217;-80
2023/10/18 08:23:36;;;;;;;9.25;4.18;;;;;;;-145.69;48.54;52083.97;4971796;28;20293;-81
2023/10/18 08:26:04;;;;;;;11.63;3.80;;;;;;;-145.69;46.87;52095.84;5018077;28;20209;-81
2023/10/18 08:28:38;;;;;;;6.22;3.88;;;;;;;-145.69;46.74;52068.13;5006681;28;20482;-82
2023/10/18 08:31:15;;;;;;;8.50;3.75;;;;;;;-145.69;46.57;52119.63;4977443;28;20198;-83
2023/10/18 08:33:41;;;;;;;8.93;3.35;;;;;;;-145.69;46.33;52064.16;4972020;28;20205;-82
2023/10/18 08:36:13;;;;;;;4.72;2.67;;;;;;;-145.69;46.14;52091.88;5013816;28;20562;-81
2023/10/18 08:38:41;;;;;;;4.57;2.15;;;;;;;-145.69;44.22;52101.78;5025593;28;20210;-82
2023/10/18 08:41:13;;;;;;;3.80;1.83;;;;;;;-145.69;44.24;52068.13;5005992;28;20238;-82
2023/10/18 08:43:52;;;;;;;4.82;2.13;;;;;;;-145.69;44.09;52095.84;5071582;28;20199;-82
2023/10/18 08:46:24;;;;;;;4.75;1.75;;;;;;;-145.69;42.34;52115.66;4983160;28;20202;-83
2023/10/18 08:48:52;;;;;;;2.20;1.60;;;;;;;-145.69;41.75;52070.09;4971793;28;20285;-81
2023/10/18 08:51:23;;;;;;;3.15;1.40;;;;;;;-145.69;41.65;52060.22;4970979;28;20198;-81
2023/10/18 08:53:52;;;;;;;2.45;1.50;;;;;;;-145.69;40.59;52097.84;4971563;28;20653;-81
2023/10/18 08:56:25;;;;;;;2.08;1.40;;;;;;;-145.69;40.87;52107.72;4971571;28;20559;-81
2023/10/18 08:58:54;;;;;;;2.72;1.48;;;;;;;-145.69;40.83;52097.84;5038320;28;20664;-81
2023/10/18 09:01:22;;;;;;;5.18;1.52;;;;;;;-145.69;41.12;52038.44;4998062;28;20664;-81
2023/10/18 09:03:47;;;;;;;4.15;1.70;;;;;;;-145.69;40.55;52042.38;4961012;28;20202;-81
2023/10/18 09:06:22;;;;;;;4.93;2.70;;;;;;;-145.69;41.40;52062.19;4971463;28;20209;-81
2023/10/18 09:09:00;;;;;;;5.10;2.50;;;;;;;-145.69;42.13;52066.16;4971299;28;20209;-82
2023/10/18 09:11:30;;;;;;;5.22;2.90;;;;;;;-145.69;41.15;52040.41;4970926;28;20198;-81
2023/10/18 09:14:08;;;;;;;4.78;2.38;;;;;;;-145.69;42.25;52076.03;4971931;28;20229;-81
2023/10/18 09:16:43;;;;;;;5.65;3.10;;;;;;;-145.69;42.49;52024.56;4971364;28;20576;-80
2023/10/18 09:19:11;;;;;;;4.93;2.22;;;;;;;-145.69;42.51;52040.41;4970659;28;20198;-81
2023/10/18 09:21:43;;;;;;;3.90;2.30;;;;;;;-145.69;40.60;52038.44;4985717;28;20228;-80
2023/10/18 09:24:11;;;;;;;7.82;2.17;;;;;;;-145.69;40.70;52040.41;4970918;28;20209;-81
2023/10/18 09:26:41;;;;;;;2.95;1.98;;;;;;;-145.69;40.53;52052.28;4969172;28;20652;-80
2023/10/18 09:29:09;;;;;;;3.65;2.30;;;;;;;-145.69;39.75;52032.47;4972590;28;20202;-81
2023/10/18 09:31:37;;;;;;;2.92;1.38;;;;;;;-145.69;39.06;52032.47;4975127;28;20209;-82
2023/10/18 09:34:08;;;;;;;3.28;1.90;;;;;;;-145.69;38.86;52002.78;4976325;28;20560;-81
2023/10/18 09:36:38;;;;;;;2.08;1.33;;;;;;;-145.69;39.16;52012.69;4970855;28;20242;-80
2023/10/18 09:39:09;;;;;;;2.40;1.25;;;;;;;-145.69;38.63;52048.31;4970985;28;20664;-81
2023/10/18 09:41:37;;;;;;;2.20;1.17;;;;;;;-145.69;38.41;52020.59;4972376;28;20252;-81
2023/10/18 09:44:07;;;;;;;2.67;1.10;;;;;;;-145.69;38.37;52018.63;4971876;28;20199;-82
2023/10/18 09:46:34;;;;;;;2.97;1.25;;;;;;;-145.69;38.71;52030.50;4972460;28;20198;-81
2023/10/18 09:49:04;;;;;;;2.97;1.40;;;;;;;-145.69;39.26;52038.44;4971712;28;20201;-81
2023/10/18 09:51:34;;;;;;;1.40;1.00;;;;;;;-145.69;39.04;52016.66;4972379;28;20617;-81
2023/10/18 09:54:06;;;;;;;3.50;1.40;;;;;;;-145.69;39.14;52028.53;4971035;28;20206;-81
2023/10/18 09:56:35;;;;;;;3.58;1.40;;;;;;;-145.69;38.99;52018.63;4970536;28;20241;-81
2023/10/18 09:59:07;;;;;;;2.67;1.38;;;;;;;-145.69;39.60;52024.56;4970285;28;20687;-81
2023/10/18 10:01:56;;;;;;;2.97;1.35;;;;;;;-145.69;39.17;52046.34;4970384;28;20669;-81
2023/10/18 10:04:23;;;;;;;2.20;1.27;;;;;;;-145.69;38.72;52018.63;4970211;28;20206;-81
2023/10/18 10:06:55;;;;;;;2.03;1.10;;;;;;;-145.69;39.11;52028.53;4970601;28;20240;-81
2023/10/18 10:09:29;;;;;;;4.05;1.10;;;;;;;-145.69;39.24;52016.66;4969968;28;20598;-81
2023/10/18 10:11:56;;;;;;;6.43;3.20;;;;;;;-145.69;41.13;52044.38;4970301;28;20189;-81
2023/10/18 10:14:22;;;;;;;5.70;2.95;;;;;;;-145.69;42.11;52038.44;4970190;28;20217;-80
2023/10/18 10:16:57;;;;;;;7.50;3.55;;;;;;;-145.69;43.12;52026.53;4970187;28;20226;-81
2023/10/18 10:19:28;;;;;;;7.40;4.07;;;;;;;-145.69;42.43;52038.44;4970292;28;20201;-81
2023/10/18 10:22:04;;;;;;;6.40;3.83;;;;;;;-145.69;43.58;52052.28;4970811;28;20245;-82
2023/10/18 10:24:35;;;;;;;10.45;4.18;;;;;;;-145.69;42.90;52032.47;5021144;28;20228;-81
2023/10/18 10:27:27;;;;;;;10.10;3.90;;;;;;;-145.69;42.77;52028.53;5040240;28;20190;-81
2023/10/18 10:29:56;;;;;;;7.22;4.03;;;;;;;-145.69;42.56;52032.47;4973365;28;20201;-81
2023/10/18 10:32:24;;;;;;;7.88;4.13;;;;;;;-145.69;43.51;52032.47;4974220;28;20206;-81
2023/10/18 10:35:10;;;;;;;11.15;5.10;;;;;;;-145.69;43.20;52052.28;4973567;28;20210;-80
2023/10/18 10:37:46;;;;;;;8.90;4.07;;;;;;;-145.69;42.75;52024.56;4973705;28;20321;-80
2023/10/18 10:40:19;;;;;;;9.43;4.15;;;;;;;-145.69;42.79;52028.53;4972691;28;20263;-81
2023/10/18 10:42:48;;;;;;;6.00;3.03;;;;;;;-145.69;42.14;52020.59;4973595;28;20504;-81
2023/10/18 10:45:32;;;;;;;3.55;1.80;;;;;;;-145.69;39.33;52024.56;4978371;28;20269;-81
2023/10/18 10:48:31;;;;;;;2.08;1.20;;;;;;;-145.69;37.39;52036.44;4975856;28;20610;-83
2023/10/18 10:51:11;;;;;;;1.77;1.10;;;;;;;-145.69;37.17;52022.59;4974369;28;20244;-81
2023/10/18 10:53:48;;;;;;;2.75;1.20;;;;;;;-145.69;37.04;51984.97;4973397;28;20198;-82
2023/10/18 10:56:26;;;;;;;6.38;2.95;;;;;;;-145.69;38.73;52026.53;4973700;28;20240;-81
2023/10/18 10:59:04;;;;;;;4.38;1.27;;;;;;;-145.69;37.87;51996.84;4972811;28;20646;-82
2023/10/18 11:02:05;;;;;;;2.17;1.40;;;;;;;-145.69;36.74;51977.03;4973316;28;20216;-82
2023/10/18 11:04:49;;;;;;;4.50;1.33;;;;;;;-145.69;37.94;51992.88;4956418;28;20203;-82
2023/10/18 11:07:21;;;;;;;6.18;3.80;;;;;;;-145.69;38.88;51969.13;4954225;28;20221;-82
2023/10/18 11:09:50;;;;;;;9.80;5.35;;;;;;;-145.69;39.98;51992.88;4962766;28;20542;-82
2023/10/18 11:12:17;;;;;;;10.45;5.07;;;;;;;-145.69;39.84;51959.22;4973642;28;20632;-82
2023/10/18 11:14:50;;;;;;;7.45;4.75;;;;;;;-145.69;39.98;51981.00;4973006;28;20261;-82
2023/10/18 11:17:18;;;;;;;7.78;4.78;;;;;;;-145.69;39.67;51969.13;4973634;28;20241;-82
2023/10/18 11:19:51;;;;;;;7.93;5.20;;;;;;;-145.69;39.59;51977.03;4972568;28;20201;-82
2023/10/18 11:22:19;;;;;;;10.38;5.60;;;;;;;-145.69;40.80;51977.03;4973325;28;20561;-82
2023/10/18 11:24:49;;;;;;;13.13;6.40;;;;;;;-145.69;40.98;52002.78;4972756;28;20206;-82
2023/10/18 11:27:19;;;;;;;11.25;6.28;;;;;;;-145.69;41.33;51992.88;4980502;28;20210;-81
2023/10/18 11:29:47;;;;;;;11.25;5.75;;;;;;;-145.69;40.80;52004.75;5017965;28;20198;-82
2023/10/18 11:32:18;;;;;;;10.32;6.28;;;;;;;-145.69;40.18;51996.84;4972739;28;20206;-82
2023/10/18 11:34:45;;;;;;;12.02;5.90;;;;;;;-145.69;40.39;51990.91;4972432;28;20237;-82